Cordoba Airport


Codes: LEBA/ODB
Name: Cordoba Airport
City: Cordoba
Country: Spain
Elevation: 297 ft.
Website:
Wikipedia:

Photos at Cordoba Airport


   Photos courtesy of SpottingLog. You can add your own sightings and photos by signing up for a free trial today.



No photos found.

Weather at Cordoba Airport


Time (UTC)DescriptionTempratureWindCloud coverageVisibilityPressureHumidity
15-Apr-2024 18:00Few Clouds28°C4 mph, SW13%10000m1017hPa51%
15-Apr-2024 21:00Clear Sky23°C2 mph, NW7%10000m1018hPa65%
16-Apr-2024 00:00Clear Sky18°C0 mph, S4%10000m1018hPa78%
16-Apr-2024 03:00Clear Sky17°C2 mph, N0%10000m1017hPa80%
16-Apr-2024 06:00Clear Sky16°C2 mph, NE0%10000m1017hPa79%
16-Apr-2024 09:00Clear Sky23°C2 mph, NE0%10000m1017hPa59%
16-Apr-2024 12:00Clear Sky28°C4 mph, SW0%10000m1015hPa42%
16-Apr-2024 15:00Clear Sky30°C7 mph, SW0%10000m1013hPa35%
16-Apr-2024 18:00Clear Sky26°C4 mph, W2%10000m1013hPa58%
16-Apr-2024 21:00Clear Sky20°C2 mph, N5%10000m1014hPa61%
17-Apr-2024 00:00Clear Sky18°C2 mph, W6%10000m1014hPa67%
17-Apr-2024 03:00Scattered Clouds16°C2 mph, N35%10000m1013hPa74%
17-Apr-2024 06:00Scattered Clouds16°C2 mph, NE42%10000m1013hPa78%
17-Apr-2024 09:00Broken Clouds22°C2 mph, E82%10000m1013hPa60%
17-Apr-2024 12:00Overcast Clouds27°C4 mph, SW91%10000m1012hPa45%
17-Apr-2024 15:00Overcast Clouds28°C9 mph, SW100%10000m1010hPa41%
17-Apr-2024 18:00Overcast Clouds24°C9 mph, SW100%10000m1011hPa63%
17-Apr-2024 21:00Overcast Clouds18°C7 mph, SW95%10000m1013hPa75%
18-Apr-2024 00:00Broken Clouds14°C4 mph, SW69%10000m1013hPa86%
18-Apr-2024 03:00Clear Sky12°C4 mph, SW6%10000m1013hPa91%
18-Apr-2024 06:00Scattered Clouds11°C2 mph, SW39%10000m1014hPa94%
18-Apr-2024 09:00Overcast Clouds17°C7 mph, SW100%10000m1015hPa73%
18-Apr-2024 12:00Overcast Clouds23°C9 mph, SW100%10000m1013hPa49%
18-Apr-2024 15:00Scattered Clouds24°C9 mph, SW33%10000m1012hPa42%
18-Apr-2024 18:00Few Clouds22°C4 mph, SW23%10000m1012hPa60%
18-Apr-2024 21:00Clear Sky16°C4 mph, SW3%10000m1014hPa74%
19-Apr-2024 00:00Clear Sky14°C4 mph, SW8%10000m1015hPa89%
19-Apr-2024 03:00Clear Sky13°C2 mph, SW5%10000m1014hPa92%
19-Apr-2024 06:00Clear Sky13°C2 mph, NE1%10000m1015hPa92%
19-Apr-2024 09:00Clear Sky20°C9 mph, S0%10000m1017hPa67%
19-Apr-2024 12:00Few Clouds23°C13 mph, S14%10000m1016hPa51%
19-Apr-2024 15:00Overcast Clouds22°C16 mph, S96%10000m1016hPa56%
19-Apr-2024 18:00Light Rain17°C11 mph, S98%10000m1017hPa73%
19-Apr-2024 21:00Light Rain14°C2 mph, NE100%10000m1019hPa88%
20-Apr-2024 00:00Light Rain13°C2 mph, E100%10000m1018hPa92%
20-Apr-2024 03:00Overcast Clouds13°C4 mph, NE99%10000m1017hPa93%
20-Apr-2024 06:00Overcast Clouds12°C4 mph, NE95%10000m1017hPa96%
20-Apr-2024 09:00Overcast Clouds18°C4 mph, E85%10000m1017hPa65%
20-Apr-2024 12:00Broken Clouds22°C4 mph, SE82%10000m1016hPa51%
20-Apr-2024 15:00Overcast Clouds24°C2 mph, SW93%10000m1014hPa48%